createdAt,value
2018-12-17T00:00:07.800Z,84.30
2018-12-17T00:01:05.871Z,84.30
2018-12-17T00:02:05.281Z,84.30
2018-12-17T00:03:05.354Z,84.30
2018-12-17T00:04:05.538Z,84.50
2018-12-17T00:05:05.824Z,84.40
2018-12-17T00:06:08.426Z,84.50
2018-12-17T00:07:05.361Z,84.50
2018-12-17T00:08:10.485Z,84.50
2018-12-17T00:09:05.541Z,84.50
2018-12-17T00:10:10.831Z,84.70
2018-12-17T00:11:08.435Z,84.80
2018-12-17T00:12:07.831Z,84.80
2018-12-17T00:13:05.736Z,84.80
2018-12-17T00:14:05.866Z,84.80
2018-12-17T00:15:06.010Z,84.80
2018-12-17T00:16:05.175Z,84.80
2018-12-17T00:17:05.600Z,84.90
2018-12-17T00:18:05.702Z,85.00
2018-12-17T00:19:05.901Z,85.00
2018-12-17T00:20:04.987Z,85.00
2018-12-17T00:21:05.227Z,85.00
2018-12-17T00:22:05.331Z,85.10
2018-12-17T00:23:05.527Z,85.00
2018-12-17T00:24:05.580Z,85.00
2018-12-17T00:25:05.869Z,85.00
2018-12-17T00:26:05.549Z,85.00
2018-12-17T00:27:08.233Z,85.00
2018-12-17T00:28:08.633Z,85.00
2018-12-17T00:29:08.288Z,85.00
2018-12-17T00:30:05.234Z,85.00
2018-12-17T00:31:05.481Z,85.00
2018-12-17T00:32:05.621Z,85.00
2018-12-17T00:33:08.336Z,85.10
2018-12-17T00:34:05.363Z,85.10
2018-12-17T00:35:05.636Z,85.10
2018-12-17T00:36:08.408Z,85.20
2018-12-17T00:37:08.072Z,85.20
2018-12-17T00:38:05.054Z,85.20
2018-12-17T00:39:05.199Z,85.20
2018-12-17T00:40:05.326Z,85.20
2018-12-17T00:41:05.377Z,85.30
2018-12-17T00:42:08.031Z,85.50
2018-12-17T00:43:05.083Z,85.50
2018-12-17T00:44:05.406Z,85.60
2018-12-17T00:45:05.467Z,85.50
2018-12-17T00:46:05.597Z,85.60
2018-12-17T00:47:05.724Z,85.70
2018-12-17T00:48:05.909Z,85.70
2018-12-17T00:49:05.579Z,85.60
2018-12-17T00:50:08.317Z,85.70
2018-12-17T00:51:05.345Z,85.60
2018-12-17T00:52:05.488Z,85.60
2018-12-17T00:53:08.085Z,85.60
2018-12-17T00:54:05.070Z,85.50
2018-12-17T00:55:07.778Z,85.60
2018-12-17T00:56:05.789Z,85.60
2018-12-17T00:57:05.919Z,85.60
2018-12-17T00:58:07.518Z,85.60
2018-12-17T00:59:07.977Z,85.70
2018-12-17T01:00:05.957Z,85.70
2018-12-17T01:01:05.206Z,85.60
2018-12-17T01:02:05.355Z,85.60
2018-12-17T01:03:05.548Z,85.70
2018-12-17T01:04:08.228Z,85.70
2018-12-17T01:05:10.195Z,85.60
2018-12-17T01:06:07.675Z,85.70
2018-12-17T01:07:05.566Z,85.70
2018-12-17T01:08:05.636Z,85.70
2018-12-17T01:09:08.349Z,85.70
2018-12-17T01:10:10.451Z,85.70
2018-12-17T01:11:05.402Z,85.70
2018-12-17T01:12:05.454Z,85.70
2018-12-17T01:13:05.509Z,85.60
2018-12-17T01:14:10.816Z,85.60
2018-12-17T01:15:05.807Z,85.60
2018-12-17T01:16:05.882Z,85.60
2018-12-17T01:17:07.639Z,85.70
2018-12-17T01:18:05.571Z,85.70
2018-12-17T01:19:05.720Z,85.70
2018-12-17T01:20:05.773Z,85.70
2018-12-17T01:21:05.832Z,85.70
2018-12-17T01:22:05.902Z,85.60
2018-12-17T01:23:08.662Z,85.60
2018-12-17T01:24:10.866Z,85.60
2018-12-17T01:25:08.313Z,85.60
2018-12-17T01:26:05.245Z,85.60
2018-12-17T01:27:05.330Z,85.60
2018-12-17T01:28:05.477Z,85.50
2018-12-17T01:29:05.576Z,85.50
2018-12-17T01:30:08.230Z,85.50
2018-12-17T01:31:07.644Z,85.50
2018-12-17T01:32:08.218Z,85.50
2018-12-17T01:33:05.115Z,85.50
2018-12-17T01:34:05.359Z,85.40
2018-12-17T01:35:07.862Z,85.50
2018-12-17T01:36:05.815Z,85.50
2018-12-17T01:37:05.879Z,85.50
2018-12-17T01:38:05.978Z,85.40
2018-12-17T01:39:07.585Z,85.30
2018-12-17T01:40:05.623Z,85.30
2018-12-17T01:41:05.899Z,85.40
2018-12-17T01:42:07.542Z,85.40
2018-12-17T01:43:08.101Z,85.30
2018-12-17T01:44:05.084Z,85.20
2018-12-17T01:45:07.684Z,85.20
2018-12-17T01:46:08.191Z,85.20
2018-12-17T01:47:05.096Z,85.20
2018-12-17T01:48:07.730Z,85.10
2018-12-17T01:49:08.170Z,85.10
2018-12-17T01:50:05.200Z,85.10
2018-12-17T01:51:07.920Z,85.10
2018-12-17T01:52:08.398Z,85.10
2018-12-17T01:53:05.303Z,85.10
2018-12-17T01:54:08.126Z,85.10
2018-12-17T01:55:05.132Z,85.10
2018-12-17T01:56:05.214Z,85.10
2018-12-17T01:57:05.306Z,85.20
2018-12-17T01:58:05.395Z,85.00
2018-12-17T01:59:05.639Z,85.00
2018-12-17T02:00:05.760Z,84.90
2018-12-17T02:01:08.398Z,85.00
2018-12-17T02:02:05.325Z,84.90
2018-12-17T02:03:05.509Z,85.00
2018-12-17T02:04:08.256Z,85.00
2018-12-17T02:05:05.247Z,85.00
2018-12-17T02:06:05.440Z,85.10
2018-12-17T02:07:05.615Z,85.10
2018-12-17T02:08:05.723Z,85.00
2018-12-17T02:09:05.832Z,85.00
2018-12-17T02:10:10.955Z,84.80
2018-12-17T02:11:05.980Z,84.80
2018-12-17T02:12:07.684Z,84.80
2018-12-17T02:13:05.583Z,84.80
2018-12-17T02:14:08.258Z,84.80
2018-12-17T02:15:05.172Z,84.80
2018-12-17T02:16:05.166Z,84.80
2018-12-17T02:17:05.582Z,84.80
2018-12-17T02:18:05.795Z,84.80
2018-12-17T02:19:08.555Z,84.80
2018-12-17T02:20:05.535Z,84.80
2018-12-17T02:21:10.808Z,84.80
2018-12-17T02:22:05.795Z,84.80
2018-12-17T02:23:06.001Z,84.80
2018-12-17T02:24:05.118Z,84.80
2018-12-17T02:25:07.651Z,84.80
2018-12-17T02:26:05.588Z,84.80
2018-12-17T02:27:05.678Z,84.80
2018-12-17T02:28:05.796Z,84.80
2018-12-17T02:29:08.372Z,84.80
2018-12-17T02:30:05.307Z,84.90
2018-12-17T02:31:05.686Z,84.90
2018-12-17T02:32:05.853Z,84.90
2018-12-17T02:33:08.525Z,85.00
2018-12-17T02:34:05.490Z,85.00
2018-12-17T02:35:05.592Z,85.00
2018-12-17T02:36:05.777Z,85.00
2018-12-17T02:37:06.061Z,85.00
2018-12-17T02:38:05.231Z,85.00
2018-12-17T02:39:05.369Z,85.00
2018-12-17T02:40:05.383Z,85.00
2018-12-17T02:41:05.509Z,85.00
2018-12-17T02:42:05.576Z,85.00
2018-12-17T02:43:05.775Z,85.00
2018-12-17T02:44:05.777Z,85.00
2018-12-17T02:45:05.899Z,85.00
2018-12-17T02:46:08.460Z,85.00
2018-12-17T02:47:05.367Z,85.00
2018-12-17T02:48:07.990Z,85.00
2018-12-17T02:49:06.043Z,85.00
2018-12-17T02:50:05.174Z,85.00
2018-12-17T02:51:05.263Z,85.10
2018-12-17T02:52:05.890Z,85.00
2018-12-17T02:53:05.292Z,85.00
2018-12-17T02:54:07.863Z,85.10
2018-12-17T02:55:06.099Z,85.10
2018-12-17T02:56:05.243Z,85.10
2018-12-17T02:57:05.427Z,85.10
2018-12-17T02:58:05.524Z,85.10
2018-12-17T02:59:05.024Z,85.10
2018-12-17T03:00:07.806Z,85.10
2018-12-17T03:01:08.416Z,85.10
2018-12-17T03:02:05.336Z,85.10
2018-12-17T03:03:10.429Z,85.10
2018-12-17T03:04:07.907Z,85.10
2018-12-17T03:05:05.822Z,85.20
2018-12-17T03:06:05.952Z,85.10
2018-12-17T03:07:07.757Z,85.10
2018-12-17T03:08:08.380Z,85.10
2018-12-17T03:09:07.950Z,85.10
2018-12-17T03:10:05.988Z,85.10
2018-12-17T03:11:05.053Z,85.10
2018-12-17T03:12:05.074Z,85.20
2018-12-17T03:13:07.738Z,85.20
2018-12-17T03:14:05.756Z,85.20
2018-12-17T03:15:05.796Z,85.20
2018-12-17T03:16:05.953Z,85.30
2018-12-17T03:17:05.000Z,85.30
2018-12-17T03:18:05.032Z,85.30
2018-12-17T03:19:07.819Z,85.30
2018-12-17T03:20:05.819Z,85.30
2018-12-17T03:21:08.395Z,85.30
2018-12-17T03:22:05.355Z,85.30
2018-12-17T03:23:07.999Z,85.30
2018-12-17T03:24:05.960Z,85.40
2018-12-17T03:25:04.989Z,85.30
2018-12-17T03:26:07.520Z,85.30
2018-12-17T03:27:05.452Z,85.30
2018-12-17T03:28:05.601Z,85.30
2018-12-17T03:29:08.340Z,85.30
2018-12-17T03:30:07.887Z,85.40
2018-12-17T03:31:06.110Z,85.40
2018-12-17T03:32:05.245Z,85.40
2018-12-17T03:33:05.795Z,85.40
2018-12-17T03:34:08.348Z,85.50
2018-12-17T03:35:10.346Z,85.50
2018-12-17T03:36:05.231Z,85.50
2018-12-17T03:37:05.236Z,85.50
2018-12-17T03:38:05.611Z,85.50
2018-12-17T03:39:08.272Z,85.50
2018-12-17T03:40:05.379Z,85.50
2018-12-17T03:41:05.507Z,85.50
2018-12-17T03:42:05.585Z,85.50
2018-12-17T03:43:08.262Z,85.60
2018-12-17T03:44:05.225Z,85.60
2018-12-17T03:45:07.931Z,85.60
2018-12-17T03:46:08.427Z,85.60
2018-12-17T03:47:05.508Z,85.60
2018-12-17T03:48:05.608Z,85.60
2018-12-17T03:49:05.676Z,85.60
2018-12-17T03:50:05.898Z,85.60
2018-12-17T03:51:05.049Z,85.60
2018-12-17T03:52:05.204Z,85.70
2018-12-17T03:53:05.335Z,85.70
2018-12-17T03:54:05.515Z,85.70
2018-12-17T03:55:05.649Z,85.80
2018-12-17T03:56:05.817Z,85.90
2018-12-17T03:57:05.960Z,85.80
2018-12-17T03:58:05.071Z,85.80
2018-12-17T03:59:07.675Z,85.90
2018-12-17T04:00:05.680Z,85.90
2018-12-17T04:01:05.899Z,85.80
2018-12-17T04:02:05.138Z,85.80
2018-12-17T04:03:07.711Z,85.80
2018-12-17T04:04:05.616Z,85.80
2018-12-17T04:05:05.714Z,85.90
2018-12-17T04:06:05.915Z,85.80
2018-12-17T04:07:05.259Z,85.70
2018-12-17T04:08:07.861Z,85.80
2018-12-17T04:09:05.951Z,85.80
2018-12-17T04:10:05.035Z,85.80
2018-12-17T04:11:10.378Z,85.90
2018-12-17T04:12:07.864Z,86.00
2018-12-17T04:13:05.895Z,85.80
2018-12-17T04:14:08.444Z,85.90
2018-12-17T04:15:07.930Z,85.80
2018-12-17T04:16:05.912Z,85.80
2018-12-17T04:17:05.173Z,85.80
2018-12-17T04:18:05.323Z,85.90
2018-12-17T04:19:05.396Z,85.80
2018-12-17T04:20:10.586Z,85.80
2018-12-17T04:21:05.498Z,86.10
2018-12-17T04:22:08.061Z,85.80
2018-12-17T04:23:05.156Z,85.80
2018-12-17T04:24:05.287Z,85.90
2018-12-17T04:25:09.356Z,85.90
2018-12-17T04:26:07.962Z,85.90
2018-12-17T04:27:05.963Z,85.90
2018-12-17T04:28:07.637Z,85.90
2018-12-17T04:29:07.409Z,85.90
2018-12-17T04:30:05.502Z,85.90
2018-12-17T04:31:08.267Z,86.30
2018-12-17T04:32:05.298Z,86.00
2018-12-17T04:33:05.358Z,86.00
2018-12-17T04:34:10.718Z,85.90
2018-12-17T04:35:08.349Z,85.90
2018-12-17T04:36:07.904Z,85.90
2018-12-17T04:37:05.923Z,85.90
2018-12-17T04:38:06.083Z,86.00
2018-12-17T04:39:05.107Z,85.90
2018-12-17T04:40:12.703Z,85.90
2018-12-17T04:41:05.719Z,85.90
2018-12-17T04:42:05.752Z,85.90
2018-12-17T04:43:05.822Z,86.00
2018-12-17T04:44:06.053Z,86.00
2018-12-17T04:45:05.124Z,85.90
2018-12-17T04:46:05.284Z,85.90
2018-12-17T04:47:07.998Z,86.00
2018-12-17T04:48:05.086Z,86.00
2018-12-17T04:49:05.108Z,85.90
2018-12-17T04:50:05.145Z,85.90
2018-12-17T04:51:10.320Z,85.90
2018-12-17T04:52:05.281Z,85.90
2018-12-17T04:53:05.296Z,85.90
2018-12-17T04:54:05.366Z,86.00
2018-12-17T04:55:05.530Z,85.90
2018-12-17T04:56:05.822Z,86.00
2018-12-17T04:57:08.600Z,85.90
2018-12-17T04:58:05.714Z,85.90
2018-12-17T04:59:15.172Z,85.90
2018-12-17T05:00:07.602Z,85.80
2018-12-17T05:01:08.047Z,85.90
2018-12-17T05:02:06.017Z,85.80
2018-12-17T05:03:05.123Z,85.80
2018-12-17T05:04:10.341Z,85.70
2018-12-17T05:05:05.273Z,85.70
2018-12-17T05:06:05.468Z,85.70
2018-12-17T05:07:05.570Z,85.70
2018-12-17T05:08:05.546Z,85.70
2018-12-17T05:09:05.713Z,85.70
2018-12-17T05:10:05.798Z,85.70
2018-12-17T05:11:05.994Z,85.70
2018-12-17T05:12:05.085Z,85.60
2018-12-17T05:13:07.685Z,85.50
2018-12-17T05:14:05.779Z,85.50
2018-12-17T05:15:08.427Z,85.50
2018-12-17T05:16:05.406Z,85.40
2018-12-17T05:17:05.653Z,85.50
2018-12-17T05:18:08.468Z,85.40
2018-12-17T05:19:10.542Z,85.40
2018-12-17T05:20:08.004Z,85.40
2018-12-17T05:21:05.926Z,85.40
2018-12-17T05:22:05.034Z,85.40
2018-12-17T05:23:07.597Z,85.40
2018-12-17T05:24:05.677Z,85.40
2018-12-17T05:25:06.243Z,85.40
2018-12-17T05:26:07.934Z,85.40
2018-12-17T05:27:11.072Z,85.40
2018-12-17T05:28:07.555Z,85.40
2018-12-17T05:29:08.108Z,85.40
2018-12-17T05:30:05.103Z,85.50
2018-12-17T05:31:07.755Z,85.50
2018-12-17T05:32:05.809Z,85.40
2018-12-17T05:33:05.932Z,85.40
2018-12-17T05:34:04.995Z,85.50
2018-12-17T05:35:05.245Z,85.50
2018-12-17T05:36:05.466Z,85.50
2018-12-17T05:37:05.505Z,85.50
2018-12-17T05:38:08.106Z,85.70
2018-12-17T05:39:05.131Z,85.60
2018-12-17T05:40:05.321Z,85.60
2018-12-17T05:41:08.424Z,85.70
2018-12-17T05:42:05.597Z,85.60
2018-12-17T05:43:05.775Z,85.60
2018-12-17T05:44:05.885Z,85.80
2018-12-17T05:45:05.203Z,85.80
2018-12-17T05:46:07.878Z,85.80
2018-12-17T05:47:05.936Z,85.80
2018-12-17T05:48:05.066Z,85.80
2018-12-17T05:49:07.713Z,85.70
2018-12-17T05:50:05.822Z,85.70
2018-12-17T05:51:08.504Z,85.80
2018-12-17T05:52:08.142Z,85.70
2018-12-17T05:53:05.124Z,85.70
2018-12-17T05:54:05.229Z,85.70
2018-12-17T05:55:05.404Z,85.70
2018-12-17T05:56:05.524Z,85.70
2018-12-17T05:57:10.840Z,85.70
2018-12-17T05:58:05.826Z,85.70
2018-12-17T05:59:05.910Z,85.70
2018-12-17T06:00:07.560Z,85.70
2018-12-17T06:01:05.604Z,85.70
2018-12-17T06:02:05.946Z,85.70
2018-12-17T06:03:07.543Z,85.60
2018-12-17T06:04:08.065Z,85.50
2018-12-17T06:05:07.619Z,85.50
2018-12-17T06:06:10.824Z,85.50
2018-12-17T06:07:06.002Z,85.50
2018-12-17T06:08:05.214Z,85.50
2018-12-17T06:09:07.827Z,85.50
2018-12-17T06:10:08.415Z,85.50
2018-12-17T06:11:05.405Z,85.50
2018-12-17T06:12:05.593Z,85.60
2018-12-17T06:13:05.681Z,85.70
2018-12-17T06:14:05.834Z,85.70
2018-12-17T06:15:05.187Z,85.60
2018-12-17T06:16:05.445Z,85.70
2018-12-17T06:17:06.016Z,85.70
2018-12-17T06:18:05.316Z,85.80
2018-12-17T06:19:08.102Z,85.80
2018-12-17T06:20:07.626Z,85.80
2018-12-17T06:21:08.313Z,85.80
2018-12-17T06:22:05.175Z,85.80
2018-12-17T06:23:05.266Z,85.80
2018-12-17T06:24:12.935Z,85.90
2018-12-17T06:25:05.901Z,85.90
2018-12-17T06:26:05.120Z,85.90
2018-12-17T06:27:07.853Z,85.90
2018-12-17T06:28:05.975Z,85.90
2018-12-17T06:29:05.143Z,85.90
2018-12-17T06:30:05.277Z,85.90
2018-12-17T06:31:10.979Z,85.90
2018-12-17T06:32:05.037Z,85.90
2018-12-17T06:33:06.305Z,85.90
2018-12-17T06:34:13.057Z,86.00
2018-12-17T06:35:07.570Z,86.00
2018-12-17T06:36:05.585Z,86.00
2018-12-17T06:37:08.223Z,86.00
2018-12-17T06:38:05.337Z,86.00
2018-12-17T06:39:08.082Z,86.00
2018-12-17T06:40:10.758Z,86.00
2018-12-17T06:41:05.913Z,86.10
2018-12-17T06:42:05.208Z,86.10
2018-12-17T06:43:07.858Z,86.20
2018-12-17T06:44:05.885Z,86.20
2018-12-17T06:45:05.041Z,86.10
2018-12-17T06:46:05.123Z,86.30
2018-12-17T06:47:05.223Z,86.20
2018-12-17T06:48:05.540Z,86.20
2018-12-17T06:49:08.164Z,86.10
2018-12-17T06:50:11.215Z,86.20
2018-12-17T06:51:05.228Z,86.20
2018-12-17T06:52:08.058Z,86.20
2018-12-17T06:53:07.644Z,86.30
2018-12-17T06:54:08.110Z,86.30
2018-12-17T06:55:10.216Z,86.20
2018-12-17T06:56:05.313Z,86.20
2018-12-17T06:57:05.454Z,86.20
2018-12-17T06:58:05.900Z,86.30
2018-12-17T06:59:07.547Z,86.40
2018-12-17T07:00:08.104Z,86.30
2018-12-17T07:01:07.696Z,86.40
2018-12-17T07:02:08.136Z,86.40
2018-12-17T07:03:05.051Z,86.40
2018-12-17T07:04:05.141Z,86.40
2018-12-17T07:05:05.277Z,86.40
2018-12-17T07:06:05.530Z,86.40
2018-12-17T07:07:08.299Z,86.40
2018-12-17T07:08:07.784Z,86.40
2018-12-17T07:09:05.915Z,86.40
2018-12-17T07:10:05.065Z,86.40
2018-12-17T07:11:05.290Z,86.40
2018-12-17T07:12:05.538Z,86.40
2018-12-17T07:13:08.202Z,86.40
2018-12-17T07:14:10.317Z,86.40
2018-12-17T07:15:05.314Z,86.40
2018-12-17T07:16:05.426Z,86.40
2018-12-17T07:17:08.112Z,86.40
2018-12-17T07:18:05.251Z,86.40
2018-12-17T07:19:07.922Z,86.40
2018-12-17T07:20:05.897Z,86.40
2018-12-17T07:21:08.511Z,86.50
2018-12-17T07:22:08.083Z,86.60
2018-12-17T07:23:07.756Z,86.60
2018-12-17T07:24:05.843Z,86.60
2018-12-17T07:25:04.944Z,86.60
2018-12-17T07:26:05.025Z,86.60
2018-12-17T07:27:05.219Z,86.80
2018-12-17T07:28:05.343Z,86.60
2018-12-17T07:29:05.412Z,86.60
2018-12-17T07:30:05.458Z,86.60
2018-12-17T07:31:05.667Z,86.60
2018-12-17T07:32:04.987Z,87.00
2018-12-17T07:33:05.031Z,86.60
2018-12-17T07:34:05.126Z,86.60
2018-12-17T07:35:05.303Z,86.80
2018-12-17T07:36:05.465Z,86.70
2018-12-17T07:37:05.621Z,86.80
2018-12-17T07:38:05.724Z,86.80
2018-12-17T07:39:08.396Z,86.90
2018-12-17T07:40:05.366Z,86.90
2018-12-17T07:41:05.443Z,86.90
2018-12-17T07:42:05.746Z,87.10
2018-12-17T07:43:05.943Z,87.00
2018-12-17T07:44:05.100Z,87.10
2018-12-17T07:45:10.207Z,86.90
2018-12-17T07:46:05.225Z,87.00
2018-12-17T07:47:05.347Z,86.90
2018-12-17T07:48:05.470Z,86.90
2018-12-17T07:49:08.142Z,87.00
2018-12-17T07:50:07.743Z,87.00
2018-12-17T07:51:05.767Z,87.00
2018-12-17T07:52:05.850Z,87.20
2018-12-17T07:53:05.924Z,87.00
2018-12-17T07:54:05.024Z,87.30
2018-12-17T07:55:05.050Z,87.00
2018-12-17T07:56:12.707Z,87.00
2018-12-17T07:57:05.613Z,87.00
2018-12-17T07:58:10.665Z,87.00
2018-12-17T07:59:05.555Z,87.00
2018-12-17T08:00:08.262Z,87.00
2018-12-17T08:01:05.207Z,87.00
2018-12-17T08:02:07.779Z,87.00
2018-12-17T08:03:05.753Z,87.00
2018-12-17T08:04:05.784Z,87.00
2018-12-17T08:05:05.045Z,87.00
2018-12-17T08:06:08.057Z,87.00
2018-12-17T08:07:06.173Z,87.00
2018-12-17T08:08:05.611Z,87.00
2018-12-17T08:09:05.738Z,86.90
2018-12-17T08:10:05.762Z,87.00
2018-12-17T08:11:05.896Z,87.00
2018-12-17T08:12:08.434Z,87.00
2018-12-17T08:13:05.448Z,87.10
2018-12-17T08:14:05.636Z,86.90
2018-12-17T08:15:08.272Z,87.10
2018-12-17T08:16:07.750Z,87.10
2018-12-17T08:17:05.992Z,87.10
2018-12-17T08:18:05.035Z,87.10
2018-12-17T08:19:07.707Z,87.10
2018-12-17T08:20:05.703Z,87.10
2018-12-17T08:21:05.762Z,87.00
2018-12-17T08:22:07.654Z,87.00
2018-12-17T08:23:05.605Z,87.00
2018-12-17T08:24:05.588Z,87.10
2018-12-17T08:25:05.598Z,87.10
2018-12-17T08:26:08.178Z,87.00
2018-12-17T08:27:05.063Z,87.00
2018-12-17T08:28:07.659Z,87.00
2018-12-17T08:29:05.704Z,87.00
2018-12-17T08:30:05.934Z,87.00
2018-12-17T08:31:05.993Z,87.00
2018-12-17T08:32:05.056Z,87.30
2018-12-17T08:33:05.086Z,86.90
2018-12-17T08:34:05.183Z,86.90
2018-12-17T08:35:05.283Z,86.90
2018-12-17T08:36:08.024Z,87.00
2018-12-17T08:37:07.542Z,86.90
2018-12-17T08:38:08.192Z,86.90
2018-12-17T08:39:05.213Z,86.80
2018-12-17T08:40:05.313Z,86.80
2018-12-17T08:41:08.012Z,86.80
2018-12-17T08:42:06.064Z,86.80
2018-12-17T08:43:05.161Z,86.90
2018-12-17T08:44:05.381Z,86.90
2018-12-17T08:45:08.134Z,86.90
2018-12-17T08:46:05.141Z,86.90
2018-12-17T08:47:10.259Z,87.00
2018-12-17T08:48:05.165Z,87.00
2018-12-17T08:49:07.760Z,86.90
2018-12-17T08:50:05.751Z,87.00
2018-12-17T08:51:05.882Z,87.00
2018-12-17T08:52:08.475Z,87.00
2018-12-17T08:53:08.045Z,87.00
2018-12-17T08:54:07.525Z,87.20
2018-12-17T08:55:07.864Z,87.00
2018-12-17T08:56:05.796Z,87.00
2018-12-17T08:57:05.828Z,87.00
2018-12-17T08:58:08.440Z,87.00
2018-12-17T08:59:05.418Z,87.00
2018-12-17T09:00:11.513Z,87.00
2018-12-17T09:01:05.646Z,87.10
2018-12-17T09:02:05.739Z,87.00
2018-12-17T09:03:05.865Z,87.00
2018-12-17T09:04:05.053Z,87.20
2018-12-17T09:05:07.719Z,87.10
2018-12-17T09:06:05.615Z,87.10
2018-12-17T09:07:05.626Z,87.10
2018-12-17T09:08:08.248Z,87.10
2018-12-17T09:09:07.798Z,87.10
2018-12-17T09:10:08.355Z,87.00
2018-12-17T09:11:05.413Z,87.00
2018-12-17T09:12:05.530Z,87.00
2018-12-17T09:13:05.687Z,87.10
2018-12-17T09:14:05.846Z,87.00
2018-12-17T09:15:05.923Z,87.20
2018-12-17T09:16:05.044Z,87.10
2018-12-17T09:17:05.179Z,87.10
2018-12-17T09:18:05.217Z,87.20
2018-12-17T09:19:05.311Z,87.20
2018-12-17T09:20:05.602Z,87.20
2018-12-17T09:21:10.756Z,87.10
2018-12-17T09:22:05.702Z,87.10
2018-12-17T09:23:05.835Z,87.20
2018-12-17T09:24:05.950Z,87.10
2018-12-17T09:25:07.495Z,87.20
2018-12-17T09:26:05.393Z,87.20
2018-12-17T09:27:08.084Z,87.20
2018-12-17T09:28:05.118Z,87.20
2018-12-17T09:29:07.755Z,87.20
2018-12-17T09:30:05.708Z,87.20
2018-12-17T09:31:08.392Z,87.20
2018-12-17T09:32:05.320Z,87.20
2018-12-17T09:33:07.908Z,87.20
2018-12-17T09:34:05.834Z,87.10
2018-12-17T09:35:05.934Z,87.10
2018-12-17T09:36:05.014Z,87.00
2018-12-17T09:37:05.169Z,87.10
2018-12-17T09:38:07.790Z,87.00
2018-12-17T09:39:08.391Z,87.00
2018-12-17T09:40:05.501Z,87.00
2018-12-17T09:41:05.722Z,86.90
2018-12-17T09:42:08.332Z,86.80
2018-12-17T09:43:05.271Z,86.90
2018-12-17T09:44:05.518Z,86.80
2018-12-17T09:45:05.615Z,86.70
2018-12-17T09:46:08.257Z,86.80
2018-12-17T09:47:05.247Z,86.80
2018-12-17T09:48:05.339Z,86.80
2018-12-17T09:49:05.534Z,86.80
2018-12-17T09:50:08.307Z,86.80
2018-12-17T09:51:10.440Z,86.70
2018-12-17T09:52:05.484Z,86.70
2018-12-17T09:53:05.552Z,86.70
2018-12-17T09:54:05.681Z,86.70
2018-12-17T09:55:08.245Z,86.70
2018-12-17T09:56:05.174Z,86.70
2018-12-17T09:57:05.437Z,86.70
2018-12-17T09:58:08.080Z,86.80
2018-12-17T09:59:05.057Z,86.80
2018-12-17T10:00:07.751Z,86.90
2018-12-17T10:01:05.714Z,86.90
2018-12-17T10:02:08.285Z,87.00
2018-12-17T10:03:07.736Z,87.00
2018-12-17T10:04:08.185Z,87.00
2018-12-17T10:05:07.791Z,87.10
2018-12-17T10:06:05.762Z,87.00
2018-12-17T10:07:08.336Z,87.10
2018-12-17T10:08:05.289Z,87.10
2018-12-17T10:09:07.869Z,87.00
2018-12-17T10:10:05.807Z,87.00
2018-12-17T10:11:08.519Z,87.00
2018-12-17T10:12:08.037Z,86.90
2018-12-17T10:13:07.604Z,86.90
2018-12-17T10:14:05.795Z,86.90
2018-12-17T10:15:08.458Z,86.90
2018-12-17T10:16:05.538Z,86.80
2018-12-17T10:17:10.737Z,86.60
2018-12-17T10:18:08.180Z,86.60
2018-12-17T10:19:10.685Z,86.40
2018-12-17T10:20:05.789Z,86.40
2018-12-17T10:21:05.917Z,86.50
2018-12-17T10:22:08.622Z,86.20
2018-12-17T10:23:05.721Z,86.30
2018-12-17T10:24:05.839Z,86.20
2018-12-17T10:25:08.419Z,86.00
2018-12-17T10:26:07.854Z,85.90
2018-12-17T10:27:08.295Z,85.90
2018-12-17T10:28:07.810Z,85.90
2018-12-17T10:29:05.836Z,85.90
2018-12-17T10:30:08.404Z,85.90
2018-12-17T10:31:05.477Z,85.90
2018-12-17T10:32:05.522Z,85.80
2018-12-17T10:33:05.900Z,85.80
2018-12-17T10:34:06.146Z,85.80
2018-12-17T10:35:05.569Z,85.80
2018-12-17T10:36:10.722Z,85.70
2018-12-17T10:37:13.262Z,85.80
2018-12-17T10:38:05.211Z,85.70
2018-12-17T10:39:08.198Z,85.70
2018-12-17T10:40:10.316Z,85.70
2018-12-17T10:41:07.812Z,85.80
2018-12-17T10:42:08.246Z,85.70
2018-12-17T10:43:05.335Z,85.70
2018-12-17T10:44:07.930Z,85.70
2018-12-17T10:45:10.880Z,85.70
2018-12-17T10:46:05.871Z,85.60
2018-12-17T10:47:08.438Z,85.40
2018-12-17T10:48:05.434Z,85.50
2018-12-17T10:49:05.674Z,85.30
2018-12-17T10:50:05.967Z,85.30
2018-12-17T10:51:07.605Z,85.30
2018-12-17T10:52:08.074Z,85.20
2018-12-17T10:53:04.996Z,85.20
2018-12-17T10:54:07.754Z,85.40
2018-12-17T10:55:05.693Z,85.40
2018-12-17T10:56:05.798Z,85.50
2018-12-17T10:57:07.807Z,85.40
2018-12-17T10:58:05.708Z,85.20
2018-12-17T10:59:05.796Z,85.30
2018-12-17T11:00:08.314Z,85.20
2018-12-17T11:01:05.286Z,85.20
2018-12-17T11:02:07.884Z,84.90
2018-12-17T11:03:05.755Z,84.90
2018-12-17T11:04:05.827Z,84.80
2018-12-17T11:05:05.849Z,84.60
2018-12-17T11:06:05.897Z,84.50
2018-12-17T11:07:05.921Z,84.40
2018-12-17T11:08:07.683Z,84.10
2018-12-17T11:09:05.692Z,84.10
2018-12-17T11:10:05.724Z,84.10
2018-12-17T11:11:08.427Z,84.10
2018-12-17T11:12:05.554Z,84.10
2018-12-17T11:13:05.661Z,84.00
2018-12-17T11:14:05.837Z,84.00
2018-12-17T11:15:13.672Z,83.90
2018-12-17T11:16:05.677Z,83.90
2018-12-17T11:17:05.777Z,84.00
2018-12-17T11:18:05.789Z,83.80
2018-12-17T11:19:05.907Z,83.80
2018-12-17T11:20:07.687Z,83.90
2018-12-17T11:21:05.983Z,83.90
2018-12-17T11:22:05.006Z,84.00
2018-12-17T11:23:07.578Z,84.10
2018-12-17T11:24:05.529Z,84.10
2018-12-17T11:25:07.863Z,84.10
2018-12-17T11:26:05.903Z,84.10
2018-12-17T11:27:07.558Z,84.30
2018-12-17T11:28:07.975Z,84.00
2018-12-17T11:29:05.054Z,84.10
2018-12-17T11:30:05.156Z,84.10
2018-12-17T11:31:05.669Z,84.10
2018-12-17T11:32:11.924Z,84.10
2018-12-17T11:33:07.482Z,83.80
2018-12-17T11:34:05.575Z,83.80
2018-12-17T11:35:05.802Z,83.60
2018-12-17T11:36:05.934Z,83.40
2018-12-17T11:37:06.007Z,83.40
2018-12-17T11:38:07.714Z,83.30
2018-12-17T11:39:05.637Z,83.30
2018-12-17T11:40:08.182Z,83.40
2018-12-17T11:41:05.160Z,83.30
2018-12-17T11:42:05.265Z,83.20
2018-12-17T11:43:05.225Z,83.20
2018-12-17T11:44:10.311Z,83.80
2018-12-17T11:45:07.687Z,83.80
2018-12-17T11:46:05.614Z,83.80
2018-12-17T11:47:05.665Z,83.80
2018-12-17T11:48:05.868Z,83.80
2018-12-17T11:49:05.051Z,83.90
2018-12-17T11:50:07.657Z,83.90
2018-12-17T11:51:05.557Z,83.90
2018-12-17T11:52:08.554Z,83.80
2018-12-17T11:53:05.598Z,83.70
2018-12-17T11:54:05.728Z,83.90
2018-12-17T11:55:05.765Z,83.80
2018-12-17T11:56:08.497Z,83.70
2018-12-17T11:57:05.530Z,83.70
2018-12-17T11:58:08.087Z,83.60
2018-12-17T11:59:07.612Z,83.60
2018-12-17T12:00:05.494Z,83.60
2018-12-17T12:01:05.575Z,83.50
2018-12-17T12:02:08.199Z,83.10
2018-12-17T12:03:05.146Z,83.20
2018-12-17T12:04:05.185Z,83.10
2018-12-17T12:05:05.804Z,83.20
2018-12-17T12:06:14.637Z,83.30
2018-12-17T12:07:05.586Z,83.30
2018-12-17T12:08:08.132Z,83.50
2018-12-17T12:09:05.073Z,83.50
2018-12-17T12:10:05.127Z,83.60
2018-12-17T12:11:05.184Z,83.60
2018-12-17T12:12:05.927Z,83.60
2018-12-17T12:13:07.758Z,83.60
2018-12-17T12:14:05.887Z,83.60
2018-12-17T12:15:05.998Z,83.70
2018-12-17T12:16:07.880Z,83.80
2018-12-17T12:17:05.827Z,83.80
2018-12-17T12:18:08.485Z,83.80
2018-12-17T12:19:05.470Z,83.80
2018-12-17T12:20:08.281Z,83.90
2018-12-17T12:21:05.329Z,83.90
2018-12-17T12:22:05.340Z,83.50
2018-12-17T12:23:05.425Z,83.50
2018-12-17T12:24:05.616Z,83.50
2018-12-17T12:25:05.674Z,83.50
2018-12-17T12:26:05.754Z,83.70
2018-12-17T12:27:05.963Z,83.50
2018-12-17T12:28:10.374Z,83.40
2018-12-17T12:29:05.370Z,83.40
2018-12-17T12:30:05.607Z,83.40
2018-12-17T12:31:05.691Z,83.40
2018-12-17T12:32:08.436Z,83.30
2018-12-17T12:33:07.949Z,83.30
2018-12-17T12:34:05.883Z,83.30
2018-12-17T12:35:05.949Z,83.30
2018-12-17T12:36:05.069Z,83.40
2018-12-17T12:37:05.094Z,83.60
2018-12-17T12:38:05.155Z,83.60
2018-12-17T12:39:05.274Z,83.60
2018-12-17T12:40:05.384Z,83.60
2018-12-17T12:41:05.456Z,83.60
2018-12-17T12:42:08.128Z,83.60
2018-12-17T12:43:10.154Z,83.50
2018-12-17T12:44:09.302Z,83.60
2018-12-17T12:45:05.366Z,83.50
2018-12-17T12:46:07.086Z,83.80
2018-12-17T12:47:05.320Z,83.60
2018-12-17T12:48:05.579Z,83.70
2018-12-17T12:49:10.693Z,83.80
2018-12-17T12:50:05.607Z,83.80
2018-12-17T12:51:05.736Z,83.80
2018-12-17T12:52:05.887Z,83.80